Airfield :
LOGIN :

Register | Disclaimer

   EN    FR    IT 

 










Legend :    VFR   Marginal VFR   IFR   Intensive IFR   Very Intensive IFR
Visi :
Ceiling :
>= 8 km
>= 3000ft
5 to 8 km
1000 to 3000 ft
1500m to 5 km
500 to 1000 ft
800 to 1500m
200 to 500 ft
< 800m
< 200 ft
Symbols :   Thunderstorms  Fog  Heavy snow  Heavy precipitations  Wind > 20 kt
SIGMETs :     Misc.  Thunderstorms  Icing  Turbulence  Mountain Waves  Volcanic Ashes







- Airport Elevation : 126 ft
- IATA code : WIC
- Download approach charts


EGPC - Wick

CURRENT METAR :
  • 231520Z 34016KT 9999 VCSH FEW020CB FEW025 09/05 Q1021

EXPIRED METARs :
  • 231450Z 32015KT 9999 VCSH FEW025 10/05 Q1021
  • 231420Z 33011KT 9999 VCSH FEW025 10/05 Q1020
  • 231350Z 31014KT 9999 VCSH FEW037 11/05 Q1020
  • 231320Z 32016KT 9999 FEW037 11/04 Q1019
  • 231250Z AUTO 33016KT 9999 SCT037/// 11/04 Q1019

TAF TAF EGPC
Valid from the 23 at 15:00 until the 24 at 00:00 UTC


231357Z 2315/2324 30012KT 9999 SCT025
PROB30
TEMPO 2315/2324 31015G25KT 6000 SHRA
ATIS : +44 1955 607 596
No reported NOTAMs for that airfield.



MET'MAP, your aeronautical weather chart ! - Copyright ORBIFLY December 2007 - Disclaimer

ORBIFLY MET'MAP TEAM :

Programming & Development : Alexandra Zaïnal
Concept & Development : Baudouin d'Aumeries
Co-Development & Prog : Marc-Olivier Méhu
Technical & hardware support : Manuel Goepfert

Contact : metmap@orbifly.com




SOURCES & CREDITS :

   NOAA